Time;durP1;ratioP1;P1;durP2;ratioP2;P2;SDS_P1;SDS_P2;PMS_P1;PMS_P2;Temp;Humidity;BMP_temperature;BMP_pressure;BME280_temperature;BME280_humidity;BME280_pressure;Samples;Min_cycle;Max_cycle;Signal;HPM_P1;HPM_P2
2022/03/17 00:01:52;;;;;;;12.10;7.40;;;;;;;-5.74;59.04;100888.28;25176;1313;3055130;-70
2022/03/17 00:04:22;;;;;;;12.30;6.80;;;;;;;-5.66;58.48;100888.00;25250;1313;3026564;-69
2022/03/17 00:07:07;;;;;;;12.80;6.60;;;;;;;-5.62;58.58;100890.98;25196;1313;3048819;-68
2022/03/17 00:09:36;;;;;;;14.00;7.60;;;;;;;-5.77;58.95;100892.45;25119;1313;3026734;-73
2022/03/17 00:12:25;;;;;;;14.50;6.70;;;;;;;-5.78;58.96;100894.65;25177;1313;3055181;-69
2022/03/17 00:14:54;;;;;;;11.70;6.90;;;;;;;-5.81;59.37;100890.45;25167;1313;3027518;-70
2022/03/17 00:17:23;;;;;;;13.80;7.30;;;;;;;-5.81;59.29;100895.08;25124;1313;3026949;-69
2022/03/17 00:20:07;;;;;;;14.30;7.30;;;;;;;-5.81;59.32;100889.96;25146;1313;3055396;-68
2022/03/17 00:22:38;;;;;;;18.20;7.50;;;;;;;-5.83;59.55;100896.73;25157;1313;3028268;-71
2022/03/17 00:25:07;;;;;;;14.90;7.50;;;;;;;-5.94;59.76;100898.98;25155;1313;3026163;-66
2022/03/17 00:27:37;;;;;;;13.00;6.70;;;;;;;-6.04;60.20;100894.61;25175;1313;3027422;-68
2022/03/17 00:30:07;;;;;;;10.80;6.80;;;;;;;-6.01;60.18;100889.21;25160;1313;3027570;-67
2022/03/17 00:32:39;;;;;;;14.30;6.80;;;;;;;-6.09;60.22;100897.38;25124;1313;3049845;-66
2022/03/17 00:35:42;;;;;;;11.30;6.80;;;;;;;-6.02;60.00;100889.89;25156;1312;3027333;-71
2022/03/17 00:38:08;;;;;;;12.60;7.80;;;;;;;-6.15;60.62;100891.71;25144;1313;3059162;-70
2022/03/17 00:40:38;;;;;;;17.30;7.30;;;;;;;-6.23;61.11;100896.44;25151;1313;3026678;-66
2022/03/17 00:43:11;;;;;;;13.30;7.70;;;;;;;-6.20;60.76;100888.49;25162;1313;3026616;-71
2022/03/17 00:45:44;;;;;;;16.60;7.60;;;;;;;-6.28;61.32;100894.56;25127;1313;3049510;-68
2022/03/17 00:48:13;;;;;;;13.20;6.90;;;;;;;-6.28;61.13;100893.05;25161;1312;3029494;-66
2022/03/17 00:50:44;;;;;;;12.10;6.60;;;;;;;-6.23;60.85;100891.81;25149;1313;3028473;-67
2022/03/17 00:53:13;;;;;;;14.90;8.00;;;;;;;-6.16;60.68;100893.55;25157;1313;3027092;-74
2022/03/17 00:55:43;;;;;;;12.20;7.10;;;;;;;-6.21;60.87;100890.19;25127;1313;3070461;-68
2022/03/17 00:58:12;;;;;;;13.50;7.40;;;;;;;-6.27;60.87;100884.21;25164;1312;3026857;-70
2022/03/17 01:00:42;;;;;;;16.70;7.90;;;;;;;-6.34;61.35;100889.29;25135;1313;3051049;-69
2022/03/17 01:03:12;;;;;;;13.20;7.20;;;;;;;-6.38;61.91;100891.20;25194;1312;3026443;-70
2022/03/17 01:05:41;;;;;;;15.10;7.70;;;;;;;-6.43;61.81;100892.08;25148;1313;3026319;-70
2022/03/17 01:08:11;;;;;;;9.10;6.40;;;;;;;-6.36;61.76;100891.23;25153;1313;3055039;-68
2022/03/17 01:10:42;;;;;;;11.80;7.30;;;;;;;-6.32;61.25;100890.69;25095;1313;3026292;-69
2022/03/17 01:13:31;;;;;;;13.00;7.60;;;;;;;-6.34;61.56;100894.55;25107;1313;3051688;-69
2022/03/17 01:16:01;;;;;;;16.70;7.70;;;;;;;-6.32;61.74;100893.75;25248;1312;3027629;-69
2022/03/17 01:18:30;;;;;;;19.30;8.00;;;;;;;-6.38;61.63;100890.52;25144;1313;3026610;-71
2022/03/17 01:21:13;;;;;;;12.00;6.70;;;;;;;-6.31;61.45;100894.83;25148;1313;3054323;-74
2022/03/17 01:23:43;;;;;;;11.50;6.90;;;;;;;-6.25;61.35;100894.82;25140;1313;3028119;-66
2022/03/17 01:26:13;;;;;;;15.10;7.30;;;;;;;-6.29;61.57;100895.39;25145;1313;3026210;-73
2022/03/17 01:28:42;;;;;;;9.30;5.60;;;;;;;-6.32;61.37;100886.80;25156;1313;3055406;-70
2022/03/17 01:31:13;;;;;;;11.70;6.90;;;;;;;-6.40;61.81;100879.71;25138;1313;3028065;-74
2022/03/17 01:33:45;;;;;;;10.80;6.40;;;;;;;-6.45;61.82;100880.92;25146;1313;3050854;-70
2022/03/17 01:36:14;;;;;;;14.90;7.50;;;;;;;-6.65;62.68;100886.61;25170;1313;3027221;-72
2022/03/17 01:38:43;;;;;;;11.00;6.50;;;;;;;-6.57;62.56;100886.52;25206;1313;3058687;-71
2022/03/17 01:41:12;;;;;;;10.20;6.00;;;;;;;-6.53;61.92;100883.73;25171;1313;3026758;-69
2022/03/17 01:43:41;;;;;;;11.40;5.90;;;;;;;-6.58;62.09;100881.36;25207;1313;3051858;-74
2022/03/17 01:46:14;;;;;;;16.00;6.10;;;;;;;-6.71;62.99;100879.75;25159;1313;3027533;-70
2022/03/17 01:48:43;;;;;;;11.20;6.60;;;;;;;-6.70;62.54;100880.98;25139;1312;3026356;-70
2022/03/17 01:51:12;;;;;;;10.40;6.50;;;;;;;-6.65;62.33;100882.52;25158;1313;3026340;-72
2022/03/17 01:53:41;;;;;;;12.00;6.90;;;;;;;-6.67;62.54;100884.50;25153;1313;3026871;-68
2022/03/17 01:56:10;;;;;;;12.00;7.00;;;;;;;-6.75;62.98;100882.19;25169;1313;3049310;-69
2022/03/17 01:58:41;;;;;;;9.80;5.80;;;;;;;-6.83;62.98;100877.83;25202;1313;3026821;-73
2022/03/17 02:01:10;;;;;;;15.10;7.10;;;;;;;-6.78;63.14;100882.46;25161;1313;3027929;-74
2022/03/17 02:03:43;;;;;;;14.00;7.30;;;;;;;-6.84;63.17;100885.16;25160;1313;3030057;-71
2022/03/17 02:06:13;;;;;;;11.00;6.00;;;;;;;-6.80;63.25;100888.84;25193;1313;3026742;-69
2022/03/17 02:08:42;;;;;;;10.70;6.20;;;;;;;-6.93;63.63;100888.42;25122;1313;3026558;-70
2022/03/17 02:14:01;;;;;;;13.50;7.50;;;;;;;-7.13;64.33;100893.38;25161;1313;3054403;-68
2022/03/17 02:16:33;;;;;;;14.30;7.90;;;;;;;-7.17;64.83;100896.45;25257;1313;3026312;-70
2022/03/17 02:19:01;;;;;;;9.70;6.70;;;;;;;-7.08;64.70;100895.25;25184;1312;3026985;-72
2022/03/17 02:21:34;;;;;;;10.70;6.50;;;;;;;-7.00;64.17;100900.13;25168;1313;3058482;-67
2022/03/17 02:26:52;;;;;;;13.20;6.70;;;;;;;-7.02;64.51;100904.98;25179;1313;3055246;-70
2022/03/17 02:29:21;;;;;;;12.90;7.20;;;;;;;-6.95;63.99;100904.55;25165;1313;3027669;-72
2022/03/17 02:31:50;;;;;;;15.30;7.40;;;;;;;-6.98;64.07;100908.04;25153;1313;3048903;-69
2022/03/17 02:34:19;;;;;;;11.80;6.70;;;;;;;-6.95;64.15;100909.13;25260;1313;3026332;-69
2022/03/17 02:36:49;;;;;;;13.00;7.20;;;;;;;-6.97;64.43;100914.02;25184;1313;3058326;-71
2022/03/17 02:39:20;;;;;;;12.30;6.30;;;;;;;-6.94;64.21;100912.07;25169;1313;3027484;-69
2022/03/17 02:41:50;;;;;;;14.70;6.90;;;;;;;-6.88;63.79;100915.67;25174;1313;3026778;-69
2022/03/17 02:44:19;;;;;;;11.10;7.00;;;;;;;-6.99;64.18;100914.45;25185;1313;3026792;-67
2022/03/17 02:46:49;;;;;;;15.10;8.10;;;;;;;-7.10;64.41;100912.72;25187;1313;3048867;-70
2022/03/17 02:49:18;;;;;;;11.60;6.60;;;;;;;-7.14;64.58;100909.34;25204;1312;3026763;-69
2022/03/17 02:51:48;;;;;;;15.20;7.60;;;;;;;-7.02;63.93;100911.27;25176;1313;3056197;-69
2022/03/17 02:54:17;;;;;;;13.90;7.80;;;;;;;-7.11;64.54;100913.70;25196;1313;3027994;-70
2022/03/17 02:56:46;;;;;;;12.70;7.00;;;;;;;-7.12;64.54;100912.83;25173;1315;3026658;-72
2022/03/17 02:59:15;;;;;;;12.00;6.50;;;;;;;-7.09;64.38;100910.52;25178;1312;3055832;-69
2022/03/17 03:01:44;;;;;;;13.50;7.20;;;;;;;-7.15;64.61;100911.02;25177;1313;3026867;-70
2022/03/17 03:04:16;;;;;;;16.50;7.00;;;;;;;-7.04;64.20;100908.16;25149;1313;3026842;-72
2022/03/17 03:06:46;;;;;;;11.60;6.20;;;;;;;-7.08;64.34;100904.46;25166;1313;3056113;-73
2022/03/17 03:09:15;;;;;;;11.30;6.60;;;;;;;-7.19;64.16;100899.31;25176;1313;3025539;-70
2022/03/17 03:11:45;;;;;;;15.40;7.30;;;;;;;-7.29;64.77;100897.92;25168;1313;3026584;-71
2022/03/17 03:14:16;;;;;;;11.40;6.60;;;;;;;-7.33;65.30;100896.78;25213;1312;3026770;-72
2022/03/17 03:16:45;;;;;;;13.10;7.10;;;;;;;-7.28;64.67;100895.44;25110;1313;3029629;-65
2022/03/17 03:19:15;;;;;;;11.30;6.40;;;;;;;-7.38;65.05;100895.41;25172;1313;3053786;-72
2022/03/17 03:21:46;;;;;;;16.90;7.80;;;;;;;-7.37;65.11;100908.91;25151;1313;3027406;-68
2022/03/17 03:24:15;;;;;;;12.50;6.20;;;;;;;-7.44;65.33;100905.25;25119;1313;3026817;-70
2022/03/17 03:26:45;;;;;;;15.60;7.80;;;;;;;-7.41;65.21;100905.51;25130;1316;3026222;-72
2022/03/17 03:29:23;;;;;;;9.80;5.70;;;;;;;-7.31;64.95;100908.77;25188;1313;3030057;-69
2022/03/17 03:31:53;;;;;;;12.90;6.20;;;;;;;-7.35;65.04;100911.15;25128;1313;3067706;-67
2022/03/17 03:34:22;;;;;;;6.40;4.40;;;;;;;-7.44;65.41;100911.54;25172;1313;3026895;-70
2022/03/17 03:39:41;;;;;;;11.70;6.60;;;;;;;-7.51;65.48;100917.76;25153;1313;3054284;-71
2022/03/17 03:42:10;;;;;;;14.40;7.10;;;;;;;-7.57;65.32;100920.61;25192;1313;3028120;-71
2022/03/17 03:44:39;;;;;;;13.20;7.10;;;;;;;-7.52;65.35;100919.60;25115;1313;3054052;-69
2022/03/17 03:47:08;;;;;;;11.30;6.30;;;;;;;-7.48;65.35;100915.86;25206;1313;3026608;-66
2022/03/17 03:49:42;;;;;;;10.90;6.50;;;;;;;-7.45;65.27;100920.52;25222;1313;3050951;-67
2022/03/17 03:52:12;;;;;;;10.70;6.20;;;;;;;-7.60;65.70;100915.91;25152;1313;3027383;-67
2022/03/17 03:54:42;;;;;;;11.30;6.40;;;;;;;-7.60;65.86;100914.57;25141;1312;3026770;-70
2022/03/17 03:57:12;;;;;;;13.00;6.00;;;;;;;-7.63;65.48;100919.05;25126;1313;3025934;-69
2022/03/17 03:59:42;;;;;;;11.30;6.40;;;;;;;-7.66;65.99;100915.02;25194;1313;3025531;-69
2022/03/17 04:02:12;;;;;;;13.40;7.00;;;;;;;-7.64;65.62;100918.82;25146;1313;3051736;-71
2022/03/17 04:04:41;;;;;;;14.70;6.30;;;;;;;-7.67;65.64;100919.75;25197;1313;3026727;-71
2022/03/17 04:07:11;;;;;;;8.40;5.70;;;;;;;-7.55;65.20;100917.80;25180;1313;3053884;-68
2022/03/17 04:09:41;;;;;;;15.00;7.10;;;;;;;-7.48;64.82;100920.77;25167;1313;3026145;-69
2022/03/17 04:12:11;;;;;;;10.80;6.30;;;;;;;-7.43;64.75;100919.23;25182;1313;3029725;-69
2022/03/17 04:14:41;;;;;;;15.00;6.40;;;;;;;-7.53;64.83;100922.98;25160;1313;3027188;-70
2022/03/17 04:17:10;;;;;;;11.30;6.30;;;;;;;-7.53;64.86;100925.86;25118;1313;3028732;-67
2022/03/17 04:19:41;;;;;;;13.50;6.90;;;;;;;-7.73;65.39;100931.96;25160;1313;3028046;-73
2022/03/17 04:22:10;;;;;;;12.20;6.80;;;;;;;-7.72;65.53;100935.75;25152;1313;3026133;-71
2022/03/17 04:24:40;;;;;;;12.30;6.10;;;;;;;-7.58;65.13;100939.81;25144;1312;3054032;-70
2022/03/17 04:27:09;;;;;;;13.10;7.10;;;;;;;-7.52;64.86;100942.23;25134;1313;3026723;-69
2022/03/17 04:29:40;;;;;;;11.20;6.90;;;;;;;-7.51;64.57;100940.91;25164;1313;3026516;-73
2022/03/17 04:32:11;;;;;;;14.90;6.80;;;;;;;-7.47;64.53;100941.23;25189;1312;3055516;-72
2022/03/17 04:34:41;;;;;;;14.30;8.10;;;;;;;-7.50;64.73;100944.35;25122;1313;3026026;-69
2022/03/17 04:37:10;;;;;;;9.50;6.40;;;;;;;-7.57;65.05;100944.80;25128;1313;3026435;-69
2022/03/17 04:39:39;;;;;;;12.20;6.50;;;;;;;-7.53;64.66;100949.19;25132;1313;3026897;-68
2022/03/17 04:42:09;;;;;;;13.80;6.90;;;;;;;-7.50;64.61;100947.42;25198;1313;3025880;-72
2022/03/17 04:44:39;;;;;;;12.60;7.10;;;;;;;-7.57;64.44;100947.67;25134;1313;3070869;-68
2022/03/17 04:47:08;;;;;;;14.50;7.50;;;;;;;-7.42;64.30;100951.81;25173;1313;3025345;-72
2022/03/17 04:49:37;;;;;;;8.30;5.20;;;;;;;-7.46;64.20;100950.63;25152;1313;3053216;-71
2022/03/17 04:53:26;;;;;;;15.00;6.80;;;;;;;-7.43;64.06;100950.91;25144;1313;3026550;-71
2022/03/17 04:54:57;;;;;;;11.60;6.20;;;;;;;-7.41;63.82;100954.05;25172;1312;3047532;-69
2022/03/17 04:57:27;;;;;;;13.70;7.10;;;;;;;-7.30;63.35;100949.15;25140;1313;3026402;-73
2022/03/17 04:59:57;;;;;;;10.20;5.50;;;;;;;-7.21;63.06;100953.41;25187;1312;3026766;-69
2022/03/17 05:02:26;;;;;;;12.00;6.50;;;;;;;-7.17;62.65;100960.35;25155;1313;3026807;-67
2022/03/17 05:04:55;;;;;;;12.40;6.50;;;;;;;-7.17;62.73;100958.81;25178;1312;3026001;-68
2022/03/17 05:07:23;;;;;;;10.20;6.10;;;;;;;-6.98;62.17;100959.81;25139;1313;3054484;-70
2022/03/17 05:09:53;;;;;;;13.00;6.60;;;;;;;-6.93;61.96;100951.80;25153;1313;3027155;-67
2022/03/17 05:12:23;;;;;;;12.90;6.60;;;;;;;-6.86;61.79;100947.41;25164;1313;3026338;-71
2022/03/17 05:14:53;;;;;;;14.10;6.50;;;;;;;-6.89;61.53;100958.41;25170;1312;3026415;-73
2022/03/17 05:17:22;;;;;;;11.00;6.50;;;;;;;-6.83;61.25;100957.27;25143;1312;3028860;-71
2022/03/17 05:19:59;;;;;;;14.00;6.60;;;;;;;-6.84;61.08;100959.77;25137;1312;3052661;-76
2022/03/17 05:22:29;;;;;;;10.70;6.30;;;;;;;-6.77;60.96;100954.56;25160;1313;3026381;-74
2022/03/17 05:24:58;;;;;;;13.00;6.90;;;;;;;-6.92;61.21;100962.41;25121;1313;3026872;-69
2022/03/17 05:27:27;;;;;;;13.00;6.20;;;;;;;-6.97;61.56;100967.00;25180;1312;3049743;-71
2022/03/17 05:29:56;;;;;;;9.40;5.50;;;;;;;-6.83;61.26;100971.40;25151;1313;3027523;-75
2022/03/17 05:32:26;;;;;;;11.70;6.80;;;;;;;-6.78;60.79;100963.56;25111;1313;3026145;-70
2022/03/17 05:34:55;;;;;;;7.20;5.00;;;;;;;-6.66;60.74;100963.45;24827;1313;3458527;-69
2022/03/17 05:37:24;;;;;;;17.40;7.60;;;;;;;-6.61;60.12;100968.54;25120;1313;3026743;-71
2022/03/17 05:39:56;;;;;;;17.40;6.50;;;;;;;-6.50;60.15;100970.44;25140;1313;3052633;-68
2022/03/17 05:42:26;;;;;;;13.50;6.00;;;;;;;-6.41;59.81;100964.09;25117;1313;3026731;-73
2022/03/17 05:44:55;;;;;;;14.50;6.20;;;;;;;-6.32;59.41;100965.03;25162;1313;3028323;-73
2022/03/17 05:47:24;;;;;;;10.90;6.20;;;;;;;-6.33;59.75;100966.38;25164;1313;3053398;-73
2022/03/17 05:49:53;;;;;;;10.20;5.60;;;;;;;-6.28;59.32;100966.88;25168;1313;3026385;-72
2022/03/17 05:52:22;;;;;;;10.40;5.60;;;;;;;-6.35;60.08;100963.58;25162;1312;3052237;-75
2022/03/17 05:54:51;;;;;;;16.20;7.00;;;;;;;-6.23;59.66;100961.75;25176;1313;3028654;-69
2022/03/17 05:57:20;;;;;;;12.20;6.20;;;;;;;-6.16;59.64;100966.25;25153;1313;3048897;-70
2022/03/17 05:59:49;;;;;;;14.40;7.10;;;;;;;-6.10;59.51;100967.09;25144;1313;3026358;-68
2022/03/17 06:02:18;;;;;;;16.50;7.10;;;;;;;-5.98;59.27;100973.27;25117;1313;3055997;-66
2022/03/17 06:04:47;;;;;;;17.10;6.30;;;;;;;-6.07;58.88;100968.39;25184;1313;3026111;-70
2022/03/17 06:07:16;;;;;;;16.50;7.20;;;;;;;-6.20;59.57;100971.05;25128;1313;3051145;-72
2022/03/17 06:09:45;;;;;;;10.80;5.20;;;;;;;-6.15;59.77;100967.46;25107;1313;3026147;-69
2022/03/17 06:12:15;;;;;;;15.10;6.10;;;;;;;-6.03;59.11;100971.08;25170;1313;3030531;-71
2022/03/17 06:14:45;;;;;;;11.30;4.70;;;;;;;-5.85;58.96;100970.38;25165;1313;3054793;-68
2022/03/17 06:17:14;;;;;;;13.70;5.70;;;;;;;-5.89;58.70;100975.91;25175;1313;3027174;-69
2022/03/17 06:19:43;;;;;;;10.40;5.80;;;;;;;-5.72;58.59;100977.10;25132;1313;3027003;-70
2022/03/17 06:22:12;;;;;;;10.60;5.80;;;;;;;-5.49;58.02;100977.25;25150;1313;3051386;-72
2022/03/17 06:24:42;;;;;;;16.30;7.70;;;;;;;-5.41;58.18;100976.63;25132;1313;3026550;-69
2022/03/17 06:27:11;;;;;;;11.70;5.80;;;;;;;-5.44;58.32;100973.30;25135;1313;3027327;-68
2022/03/17 06:29:42;;;;;;;10.10;5.40;;;;;;;-5.42;57.81;100973.71;25162;1313;3027400;-75
2022/03/17 06:32:12;;;;;;;11.70;5.20;;;;;;;-5.40;57.71;100971.19;25156;1315;3028927;-72
2022/03/17 06:34:41;;;;;;;9.10;5.70;;;;;;;-5.35;57.02;100973.22;25193;1313;3026640;-65
2022/03/17 06:37:10;;;;;;;12.20;6.10;;;;;;;-5.31;57.19;100971.27;25146;1313;3055292;-67
2022/03/17 06:39:39;;;;;;;14.30;6.60;;;;;;;-5.17;56.75;100970.28;25167;1313;3027274;-72
2022/03/17 06:42:08;;;;;;;13.10;5.60;;;;;;;-5.24;56.88;100973.35;25118;1313;3048850;-74
2022/03/17 06:44:37;;;;;;;12.10;5.50;;;;;;;-5.07;56.68;100970.90;25169;1313;3027315;-69
2022/03/17 06:47:06;;;;;;;10.90;5.40;;;;;;;-5.04;56.40;100969.61;25131;1313;3026297;-67
2022/03/17 06:49:35;;;;;;;14.90;6.50;;;;;;;-5.11;56.56;100969.59;25137;1313;3048992;-70
2022/03/17 06:52:05;;;;;;;11.30;4.40;;;;;;;-5.20;56.81;100976.35;25166;1312;3030007;-71
2022/03/17 06:54:36;;;;;;;11.70;5.80;;;;;;;-5.11;56.77;100970.64;25194;1313;3028896;-72
2022/03/17 06:57:05;;;;;;;11.60;5.30;;;;;;;-4.85;56.05;100971.14;25148;1312;3027505;-69
2022/03/17 06:59:34;;;;;;;12.10;5.60;;;;;;;-4.67;55.64;100963.75;25168;1313;3055572;-71
2022/03/17 07:02:03;;;;;;;15.20;5.20;;;;;;;-4.57;55.27;100959.55;25162;1313;3027544;-71
2022/03/17 07:04:32;;;;;;;13.00;5.10;;;;;;;-4.78;55.43;100957.65;25151;1313;3048629;-70
2022/03/17 07:07:02;;;;;;;11.80;5.00;;;;;;;-4.69;54.95;100953.43;25162;1313;3027306;-71
2022/03/17 07:09:31;;;;;;;10.90;5.20;;;;;;;-4.66;55.31;100950.45;25156;1313;3026838;-70
2022/03/17 07:12:00;;;;;;;15.30;6.10;;;;;;;-4.79;55.54;100957.11;25189;1313;3027069;-74
2022/03/17 07:14:30;;;;;;;11.60;5.30;;;;;;;-4.70;55.44;100950.84;25171;1313;3055083;-72
2022/03/17 07:16:59;;;;;;;10.10;5.30;;;;;;;-4.75;55.28;100949.52;25161;1313;3028621;-73
2022/03/17 07:19:30;;;;;;;12.00;5.50;;;;;;;-4.65;55.30;100948.41;25175;1312;3048843;-70
2022/03/17 07:22:00;;;;;;;9.60;5.00;;;;;;;-4.48;54.62;100954.81;25134;1313;3026454;-74
2022/03/17 07:24:29;;;;;;;9.20;5.10;;;;;;;-4.29;54.12;100951.67;25162;1313;3026088;-70
2022/03/17 07:26:59;;;;;;;10.80;5.10;;;;;;;-4.33;54.01;100953.45;25187;1313;3051690;-72
2022/03/17 07:29:28;;;;;;;10.10;5.30;;;;;;;-3.93;53.61;100954.70;25187;1313;3029497;-68
2022/03/17 07:31:58;;;;;;;11.30;5.20;;;;;;;-3.94;52.48;100959.15;25196;1313;3058504;-70
2022/03/17 07:34:28;;;;;;;9.50;4.70;;;;;;;-4.08;52.61;100961.40;25125;1313;3027793;-72
2022/03/17 07:36:58;;;;;;;14.00;4.70;;;;;;;-3.98;51.82;100954.09;25152;1313;3026410;-71
2022/03/17 07:39:27;;;;;;;8.40;4.20;;;;;;;-3.84;52.16;100952.69;25216;1313;3026346;-69
2022/03/17 07:41:56;;;;;;;13.40;5.30;;;;;;;-3.76;51.90;100953.02;25134;1313;3049172;-70
2022/03/17 07:44:32;;;;;;;13.40;6.20;;;;;;;-3.61;52.07;100956.42;25167;1313;3052194;-73
2022/03/17 07:47:20;;;;;;;15.30;5.60;;;;;;;-3.47;52.11;100951.92;25130;1313;3051218;-74
2022/03/17 07:49:50;;;;;;;14.60;5.70;;;;;;;-3.35;51.37;100948.56;25151;1313;3027694;-69
2022/03/17 07:52:19;;;;;;;11.50;5.00;;;;;;;-3.27;50.71;100944.27;25190;1313;3053376;-71
2022/03/17 07:54:48;;;;;;;13.00;5.00;;;;;;;-3.26;49.94;100943.95;25207;1313;3026936;-71
2022/03/17 07:57:19;;;;;;;13.20;5.10;;;;;;;-3.10;49.90;100934.30;25154;1313;3026050;-72
2022/03/17 07:59:48;;;;;;;14.90;5.60;;;;;;;-2.84;49.64;100932.38;25171;1313;3026343;-73
2022/03/17 08:02:19;;;;;;;12.20;4.90;;;;;;;-2.81;49.39;100930.70;25186;1313;3052286;-71
2022/03/17 08:04:50;;;;;;;12.30;5.20;;;;;;;-2.65;49.02;100928.58;25183;1313;3026979;-71
2022/03/17 08:07:19;;;;;;;13.10;5.40;;;;;;;-2.48;48.80;100930.06;25210;1313;3027876;-70
2022/03/17 08:09:48;;;;;;;15.10;5.70;;;;;;;-2.58;48.44;100925.44;25165;1313;3026870;-74
2022/03/17 08:12:18;;;;;;;11.80;5.10;;;;;;;-2.58;48.51;100927.17;25168;1313;3026442;-72
2022/03/17 08:14:47;;;;;;;14.00;5.30;;;;;;;-2.45;48.36;100926.50;25140;1313;3027382;-70
2022/03/17 08:17:17;;;;;;;13.70;5.20;;;;;;;-2.29;47.94;100926.06;25121;1313;3054644;-68
2022/03/17 08:19:48;;;;;;;11.60;5.90;;;;;;;-2.23;47.45;100925.13;25112;1312;3028021;-70
2022/03/17 08:22:17;;;;;;;8.80;4.40;;;;;;;-2.15;47.42;100928.52;25115;1313;3026646;-70
2022/03/17 08:24:46;;;;;;;10.30;4.20;;;;;;;-2.17;47.50;100922.30;25144;1313;3028812;-72
2022/03/17 08:27:16;;;;;;;6.80;3.80;;;;;;;-2.08;46.64;100917.46;25135;1313;3053581;-72
2022/03/17 08:29:48;;;;;;;10.30;4.10;;;;;;;-2.02;46.47;100914.27;25169;1313;3026664;-67
2022/03/17 08:32:17;;;;;;;8.80;3.90;;;;;;;-1.84;46.98;100909.36;25168;1312;3028225;-70
2022/03/17 08:34:46;;;;;;;9.70;4.30;;;;;;;-1.84;46.17;100912.62;25161;1313;3026480;-67
2022/03/17 08:37:15;;;;;;;11.50;4.90;;;;;;;-1.73;45.93;100917.23;25143;1311;3026649;-72
2022/03/17 08:39:46;;;;;;;10.80;4.10;;;;;;;-1.76;46.03;100916.50;25122;1312;3051857;-69
2022/03/17 08:42:15;;;;;;;8.50;4.50;;;;;;;-1.79;45.97;100911.83;25159;1313;3027713;-69
2022/03/17 08:44:54;;;;;;;11.70;5.00;;;;;;;-1.61;46.12;100906.73;25129;1313;3051353;-71
2022/03/17 08:50:13;;;;;;;12.90;4.10;;;;;;;-1.60;45.69;100912.23;25143;1313;3051705;-73
2022/03/17 08:52:43;;;;;;;7.70;4.40;;;;;;;-1.87;46.24;100915.66;25155;1313;3026411;-70
2022/03/17 08:55:12;;;;;;;10.20;4.00;;;;;;;-1.86;46.41;100913.11;25168;1312;3026596;-69
2022/03/17 08:57:42;;;;;;;8.90;3.80;;;;;;;-1.58;45.84;100909.02;25106;1313;3027060;-71
2022/03/17 09:00:12;;;;;;;8.90;3.60;;;;;;;-1.32;45.29;100905.52;25139;1313;3026921;-70
2022/03/17 09:02:44;;;;;;;10.40;3.90;;;;;;;-1.09;45.06;100913.67;25140;1313;3026475;-69
2022/03/17 09:05:13;;;;;;;7.40;3.90;;;;;;;-0.95;44.56;100913.13;25123;1313;3026551;-69
2022/03/17 09:07:42;;;;;;;11.30;5.10;;;;;;;-0.78;44.24;100912.60;25157;1313;3026428;-71
2022/03/17 09:10:12;;;;;;;9.20;4.60;;;;;;;-0.76;44.26;100906.08;25107;1313;3055394;-71
2022/03/17 09:12:41;;;;;;;9.80;3.30;;;;;;;-0.71;43.69;100904.91;25134;1313;3026768;-72
2022/03/17 09:15:14;;;;;;;11.20;3.60;;;;;;;-0.60;43.04;100910.85;25155;1313;3026772;-70
2022/03/17 09:17:44;;;;;;;8.20;3.80;;;;;;;-0.64;42.58;100909.95;25151;1312;3026681;-71
2022/03/17 09:20:15;;;;;;;9.70;3.70;;;;;;;-0.66;43.06;100895.66;25176;1313;3028003;-72
2022/03/17 09:22:45;;;;;;;11.10;3.70;;;;;;;-0.80;42.94;100909.14;25160;1313;3068320;-70
2022/03/17 09:25:14;;;;;;;7.30;3.60;;;;;;;-0.74;43.37;100909.17;25139;1316;3026623;-75
2022/03/17 09:27:44;;;;;;;12.40;4.00;;;;;;;-0.55;42.96;100906.60;25099;1311;3027806;-71
2022/03/17 09:30:13;;;;;;;7.00;3.60;;;;;;;-0.62;43.01;100899.49;25147;1313;3026554;-72
2022/03/17 09:32:41;;;;;;;7.40;3.40;;;;;;;-0.66;42.95;100900.48;25127;1313;3048600;-70
2022/03/17 09:35:11;;;;;;;11.40;3.70;;;;;;;-0.52;43.20;100899.56;25184;1313;3028577;-74
2022/03/17 09:37:40;;;;;;;9.40;3.60;;;;;;;-0.68;43.33;100900.64;25178;1313;3068328;-70
2022/03/17 09:40:10;;;;;;;7.80;3.40;;;;;;;-0.40;42.91;100902.73;25145;1313;3026418;-72
2022/03/17 09:42:39;;;;;;;8.20;3.80;;;;;;;-0.38;42.69;100898.12;25163;1313;3050627;-69
2022/03/17 09:45:08;;;;;;;13.00;3.90;;;;;;;-0.30;42.84;100892.14;25101;1313;3029016;-66
2022/03/17 09:47:40;;;;;;;10.90;3.80;;;;;;;-0.41;43.18;100904.30;25119;1313;3052781;-70
2022/03/17 09:50:10;;;;;;;6.80;3.60;;;;;;;-0.51;42.91;100901.64;25177;1313;3027096;-71
2022/03/17 09:52:41;;;;;;;8.80;3.80;;;;;;;-0.42;43.04;100894.80;25127;1313;3026711;-70
2022/03/17 09:55:11;;;;;;;7.90;3.50;;;;;;;-0.16;42.85;100901.17;25180;1313;3027012;-74
2022/03/17 09:57:41;;;;;;;9.30;3.60;;;;;;;0.21;42.29;100897.25;25170;1313;3027326;-70
2022/03/17 10:00:12;;;;;;;7.10;3.60;;;;;;;0.09;42.04;100903.75;25147;1313;3028332;-67
2022/03/17 10:02:42;;;;;;;19.00;4.50;;;;;;;0.25;42.10;100903.30;25107;1313;3049208;-71
2022/03/17 10:05:12;;;;;;;7.20;3.80;;;;;;;0.29;41.87;100892.98;25122;1313;3026725;-71
2022/03/17 10:07:45;;;;;;;6.70;3.60;;;;;;;0.34;42.02;100897.66;25145;1313;3026377;-70
2022/03/17 10:10:15;;;;;;;8.00;3.70;;;;;;;0.25;41.78;100899.00;25163;1313;3027000;-68
2022/03/17 10:12:44;;;;;;;11.90;3.90;;;;;;;0.20;42.11;100905.52;25178;1313;3026151;-70
2022/03/17 10:15:18;;;;;;;5.40;3.60;;;;;;;0.39;41.77;100898.20;25112;1313;3027394;-69
2022/03/17 10:17:47;;;;;;;8.40;3.60;;;;;;;0.29;41.86;100895.22;25100;1313;3057808;-71
2022/03/17 10:20:17;;;;;;;10.90;4.40;;;;;;;0.06;42.45;100900.27;25176;1313;3026489;-69
2022/03/17 10:22:49;;;;;;;9.80;3.40;;;;;;;-0.43;42.83;100895.48;25130;1313;3026964;-69
2022/03/17 10:25:20;;;;;;;9.60;3.50;;;;;;;-0.33;43.11;100898.48;25136;1313;3026745;-69
2022/03/17 10:27:49;;;;;;;5.90;3.20;;;;;;;0.03;42.37;100905.27;25137;1313;3026510;-69
2022/03/17 10:30:27;;;;;;;13.90;3.50;;;;;;;0.12;42.05;100900.31;25153;1313;3026472;-70
2022/03/17 10:33:01;;;;;;;13.00;3.70;;;;;;;0.22;41.83;100894.67;25180;1313;3052417;-68
2022/03/17 10:35:34;;;;;;;9.30;3.80;;;;;;;0.42;41.37;100899.06;25112;1313;3054668;-70
2022/03/17 10:38:10;;;;;;;8.20;3.70;;;;;;;0.45;41.23;100891.66;25182;1313;3026437;-67
2022/03/17 10:40:40;;;;;;;11.80;3.70;;;;;;;0.63;40.71;100889.66;25115;1312;3049247;-67
2022/03/17 10:43:17;;;;;;;7.80;3.90;;;;;;;0.75;40.67;100886.92;25165;1313;3026531;-69
2022/03/17 10:46:15;;;;;;;13.00;4.80;;;;;;;1.08;40.55;100880.60;25198;1313;3053311;-69
2022/03/17 10:48:55;;;;;;;9.70;3.70;;;;;;;0.91;40.97;100890.42;25166;1313;3068886;-71
2022/03/17 10:51:44;;;;;;;11.20;4.60;;;;;;;0.65;41.02;100892.25;25155;1313;3049186;-72
2022/03/17 10:54:15;;;;;;;9.60;3.50;;;;;;;0.52;41.19;100893.41;25200;1313;3052750;-66
2022/03/17 10:57:00;;;;;;;10.00;4.10;;;;;;;0.60;41.16;100884.48;25141;1313;3026373;-70
2022/03/17 10:59:43;;;;;;;12.60;4.60;;;;;;;0.79;41.07;100885.40;25160;1312;3056014;-66
2022/03/17 11:02:17;;;;;;;9.70;4.00;;;;;;;0.81;41.51;100892.13;25174;1313;3050603;-66
2022/03/17 11:04:47;;;;;;;11.00;4.30;;;;;;;0.74;41.31;100893.48;25127;1313;3053276;-66
2022/03/17 11:07:19;;;;;;;14.80;3.90;;;;;;;1.06;40.56;100889.75;25169;1313;3027200;-64
2022/03/17 11:09:48;;;;;;;13.10;4.20;;;;;;;1.14;40.62;100885.60;25148;1313;3026253;-68
2022/03/17 11:12:17;;;;;;;11.60;4.20;;;;;;;1.01;41.37;100885.94;25137;1312;3026885;-67
2022/03/17 11:14:50;;;;;;;12.30;4.50;;;;;;;0.92;41.51;100882.14;25147;1312;3053123;-69
2022/03/17 11:17:29;;;;;;;8.30;3.20;;;;;;;0.44;41.94;100889.94;25158;1313;3030089;-68
2022/03/17 11:20:04;;;;;;;11.80;4.10;;;;;;;0.37;41.88;100886.80;25188;1313;3049423;-68
2022/03/17 11:22:36;;;;;;;12.10;4.20;;;;;;;0.40;41.74;100884.06;25132;1313;3054630;-66
2022/03/17 11:25:20;;;;;;;11.90;3.80;;;;;;;0.49;41.67;100883.23;25174;1313;3026197;-68
2022/03/17 11:28:00;;;;;;;11.40;4.20;;;;;;;0.89;41.10;100876.95;25145;1312;3059599;-70
2022/03/17 11:30:31;;;;;;;9.70;4.10;;;;;;;0.82;40.62;100868.14;25113;1313;3049587;-70
2022/03/17 11:33:02;;;;;;;9.60;4.00;;;;;;;0.82;39.75;100875.04;25188;1312;3028614;-68